Time;durP1;ratioP1;P1;durP2;ratioP2;P2;SDS_P1;SDS_P2;PMS_P1;PMS_P2;Temp;Humidity;BMP_temperature;BMP_pressure;BME280_temperature;BME280_humidity;BME280_pressure;Samples;Min_cycle;Max_cycle;Signal;HPM_P1;HPM_P2
2022/07/28 00:01:30;;;;;;;7.40;1.77;;;12.60;99.90;;;;;;5072675;28;20090;-92
2022/07/28 00:03:56;;;;;;;5.75;1.83;;;12.50;99.90;;;;;;5072453;28;20546;-92
2022/07/28 00:06:22;;;;;;;5.40;1.70;;;12.50;99.90;;;;;;5071675;28;20116;-91
2022/07/28 00:08:47;;;;;;;6.50;2.40;;;12.50;99.90;;;;;;5072713;28;20033;-92
2022/07/28 00:11:13;;;;;;;7.30;1.83;;;12.50;99.90;;;;;;5072274;28;20071;-92
2022/07/28 00:13:38;;;;;;;6.82;1.50;;;12.50;99.90;;;;;;5072440;28;20406;-92
2022/07/28 00:16:05;;;;;;;8.38;2.40;;;12.50;99.90;;;;;;5072427;28;20497;-92
2022/07/28 00:18:31;;;;;;;6.15;2.10;;;12.50;99.90;;;;;;5072328;28;20044;-91
2022/07/28 00:20:57;;;;;;;6.00;2.00;;;12.60;99.90;;;;;;5072174;28;20158;-92
2022/07/28 00:23:22;;;;;;;5.95;1.50;;;12.50;99.90;;;;;;5087937;28;20124;-91
2022/07/28 00:25:48;;;;;;;5.57;1.77;;;12.50;99.90;;;;;;5072126;28;20036;-91
2022/07/28 00:28:14;;;;;;;6.53;2.22;;;12.40;99.90;;;;;;5072123;28;20036;-92
2022/07/28 00:30:39;;;;;;;7.15;2.40;;;12.50;99.90;;;;;;5071843;28;20398;-92
2022/07/28 00:33:05;;;;;;;3.15;1.08;;;12.50;99.90;;;;;;5072097;28;20048;-92
2022/07/28 00:35:30;;;;;;;8.63;1.60;;;12.40;99.90;;;;;;5071788;28;20075;-92
2022/07/28 00:37:56;;;;;;;5.43;1.70;;;12.30;99.90;;;;;;5071962;28;20502;-92
2022/07/28 00:41:09;;;;;;;3.63;1.30;;;12.30;99.90;;;;;;5071782;28;20398;-92
2022/07/28 00:43:07;;;;;;;3.78;0.70;;;12.30;99.90;;;;;;5071979;28;20097;-92
2022/07/28 00:45:32;;;;;;;1.38;0.70;;;12.20;99.90;;;;;;5071763;28;20119;-92
2022/07/28 00:47:58;;;;;;;2.45;0.90;;;12.10;99.90;;;;;;5070332;28;20127;-92
2022/07/28 00:50:24;;;;;;;1.60;0.63;;;12.10;99.90;;;;;;5071754;28;20731;-92
2022/07/28 00:52:50;;;;;;;1.83;0.52;;;12.00;99.90;;;;;;5072100;28;20034;-92
2022/07/28 00:55:16;;;;;;;2.85;0.75;;;11.90;99.90;;;;;;5072063;28;20414;-92
2022/07/28 00:57:42;;;;;;;0.52;0.50;;;12.00;99.90;;;;;;5072003;28;20064;-92
2022/07/28 01:00:08;;;;;;;1.40;0.60;;;11.90;99.90;;;;;;5070447;28;20482;-92
2022/07/28 01:02:34;;;;;;;1.83;0.80;;;11.80;99.90;;;;;;5071866;28;20044;-92
2022/07/28 01:05:00;;;;;;;3.25;0.93;;;11.80;99.90;;;;;;5071563;28;20047;-91
2022/07/28 01:07:35;;;;;;;2.25;1.05;;;11.80;99.90;;;;;;5071910;28;20071;-91
2022/07/28 01:10:06;;;;;;;2.83;1.35;;;11.80;99.90;;;;;;5071741;28;20033;-91
2022/07/28 01:12:46;;;;;;;4.25;1.30;;;11.70;99.90;;;;;;5071588;28;20063;-91
2022/07/28 01:15:32;;;;;;;5.72;1.90;;;11.70;99.90;;;;;;5071525;28;20125;-92
2022/07/28 01:18:14;;;;;;;5.82;2.03;;;11.80;99.90;;;;;;5071845;28;20126;-92
2022/07/28 01:20:48;;;;;;;2.90;1.38;;;11.90;99.90;;;;;;5071331;28;20036;-92
2022/07/28 01:23:32;;;;;;;2.83;0.90;;;11.80;99.90;;;;;;5071552;28;20059;-92
2022/07/28 01:26:22;;;;;;;2.85;1.27;;;11.80;99.90;;;;;;5071588;28;20048;-92
2022/07/28 01:29:15;;;;;;;3.40;1.10;;;11.80;99.90;;;;;;5071676;28;20079;-92
2022/07/28 01:31:50;;;;;;;2.03;0.85;;;11.70;99.90;;;;;;5071616;28;20036;-92
2022/07/28 01:34:31;;;;;;;3.58;0.98;;;11.60;99.90;;;;;;5071674;28;20052;-92
2022/07/28 01:37:10;;;;;;;5.05;1.30;;;11.50;99.90;;;;;;5071486;28;20111;-92
2022/07/28 01:39:38;;;;;;;4.22;1.63;;;11.50;99.90;;;;;;5071117;28;20048;-92
2022/07/28 01:42:06;;;;;;;5.53;1.92;;;11.50;99.90;;;;;;5071681;28;20115;-92
2022/07/28 01:44:35;;;;;;;4.10;1.50;;;11.60;99.90;;;;;;5071440;28;20044;-92
2022/07/28 01:47:06;;;;;;;6.10;2.10;;;11.50;99.90;;;;;;5071521;28;20053;-92
2022/07/28 01:49:34;;;;;;;7.05;2.83;;;11.50;99.90;;;;;;5071878;28;20383;-90
2022/07/28 01:52:01;;;;;;;4.40;1.58;;;11.60;99.90;;;;;;5085162;28;20494;-92
2022/07/28 01:54:29;;;;;;;4.45;1.38;;;11.50;99.90;;;;;;5086107;28;20044;-92
2022/07/28 01:56:57;;;;;;;4.60;1.42;;;11.50;99.90;;;;;;5089620;28;20044;-91
2022/07/28 01:59:24;;;;;;;3.25;1.45;;;11.40;99.90;;;;;;5082075;28;20537;-92
2022/07/28 02:01:51;;;;;;;4.78;1.88;;;11.40;99.90;;;;;;5079840;28;20398;-92
2022/07/28 02:04:20;;;;;;;5.70;1.95;;;11.50;99.90;;;;;;5074890;28;20379;-92
2022/07/28 02:06:47;;;;;;;4.90;1.48;;;11.50;99.90;;;;;;5074829;28;20040;-92
2022/07/28 02:09:13;;;;;;;3.13;1.33;;;11.50;99.90;;;;;;5074882;28;20044;-91
2022/07/28 02:11:40;;;;;;;4.43;1.00;;;11.50;99.90;;;;;;5074902;28;20032;-91
2022/07/28 02:14:07;;;;;;;3.40;1.17;;;11.40;99.90;;;;;;5074850;28;20130;-91
2022/07/28 02:16:32;;;;;;;3.03;1.00;;;11.30;99.90;;;;;;5074735;28;20421;-92
2022/07/28 02:19:00;;;;;;;5.07;1.23;;;11.30;99.90;;;;;;5074357;28;20124;-91
2022/07/28 02:21:29;;;;;;;1.25;0.80;;;11.30;99.90;;;;;;5074772;28;20062;-92
2022/07/28 02:23:56;;;;;;;3.88;1.40;;;11.20;99.90;;;;;;5074610;28;20043;-91
2022/07/28 02:26:28;;;;;;;4.03;1.30;;;11.20;99.90;;;;;;5074329;28;20482;-91
2022/07/28 02:28:56;;;;;;;4.70;1.38;;;11.20;99.90;;;;;;5074497;28;20123;-91
2022/07/28 02:31:26;;;;;;;7.88;1.55;;;11.20;99.90;;;;;;5074187;28;20086;-92
2022/07/28 02:33:57;;;;;;;9.23;1.95;;;11.10;99.90;;;;;;5074588;28;20045;-92
2022/07/28 02:36:29;;;;;;;4.68;1.70;;;11.10;99.90;;;;;;5074497;28;20056;-92
2022/07/28 02:38:59;;;;;;;5.10;1.75;;;11.10;99.90;;;;;;5074377;28;20079;-92
2022/07/28 02:41:27;;;;;;;3.97;1.50;;;11.10;99.90;;;;;;5074062;28;20490;-92
2022/07/28 02:43:59;;;;;;;6.80;2.60;;;11.10;99.90;;;;;;5074066;28;20072;-92
2022/07/28 02:46:31;;;;;;;5.43;1.80;;;11.20;99.90;;;;;;5074186;28;20044;-92
2022/07/28 02:49:03;;;;;;;4.97;2.00;;;11.20;99.90;;;;;;5074035;28;20032;-92
2022/07/28 02:51:32;;;;;;;3.17;1.30;;;11.10;99.90;;;;;;5074143;28;20036;-92
2022/07/28 02:53:59;;;;;;;5.30;1.70;;;11.10;99.90;;;;;;5074015;28;20132;-91
2022/07/28 02:56:25;;;;;;;3.40;1.35;;;11.00;99.90;;;;;;5073700;28;20082;-91
2022/07/28 02:58:53;;;;;;;5.85;1.80;;;11.00;99.90;;;;;;5073892;28;20043;-92
2022/07/28 03:01:20;;;;;;;2.85;1.30;;;11.10;99.90;;;;;;5073398;28;20103;-92
2022/07/28 03:03:47;;;;;;;4.00;1.30;;;11.00;99.90;;;;;;5074271;28;20046;-92
2022/07/28 03:06:15;;;;;;;4.05;1.13;;;11.00;99.90;;;;;;5073153;28;20036;-92
2022/07/28 03:08:41;;;;;;;2.70;0.95;;;10.90;99.90;;;;;;5073593;28;20032;-92
2022/07/28 03:11:08;;;;;;;4.75;1.40;;;10.90;99.90;;;;;;5073508;28;20032;-92
2022/07/28 03:13:34;;;;;;;3.65;1.10;;;10.90;99.90;;;;;;5073863;28;20043;-92
2022/07/28 03:16:00;;;;;;;3.10;1.00;;;10.90;99.90;;;;;;5073303;28;20115;-92
2022/07/28 03:18:27;;;;;;;3.17;1.13;;;10.80;99.90;;;;;;5073580;28;20044;-91
2022/07/28 03:20:54;;;;;;;2.63;1.00;;;10.70;99.90;;;;;;5073006;28;20044;-92
2022/07/28 03:23:22;;;;;;;2.97;1.40;;;10.70;99.90;;;;;;5073707;28;20059;-91
2022/07/28 03:25:50;;;;;;;3.60;1.30;;;10.80;99.90;;;;;;5073691;28;20085;-91
2022/07/28 03:28:19;;;;;;;2.83;1.20;;;10.80;99.90;;;;;;5073260;28;20087;-92
2022/07/28 03:30:50;;;;;;;2.97;1.33;;;10.70;99.90;;;;;;5073108;28;20043;-91
2022/07/28 03:33:17;;;;;;;4.10;1.30;;;10.70;99.90;;;;;;5073308;28;20089;-92
2022/07/28 03:35:47;;;;;;;3.80;1.30;;;10.70;99.90;;;;;;5073089;28;20925;-92
2022/07/28 03:38:17;;;;;;;6.07;1.50;;;10.60;99.90;;;;;;5072960;28;20514;-92
2022/07/28 03:40:45;;;;;;;2.22;1.23;;;10.60;99.90;;;;;;5072866;28;20075;-91
2022/07/28 03:43:12;;;;;;;3.45;1.60;;;10.50;99.90;;;;;;5072798;28;20059;-92
2022/07/28 03:45:40;;;;;;;3.42;1.50;;;10.50;99.90;;;;;;5072833;28;20525;-91
2022/07/28 03:48:05;;;;;;;3.90;1.30;;;10.50;99.90;;;;;;5072575;28;20095;-91
2022/07/28 03:50:32;;;;;;;3.17;1.38;;;10.50;99.90;;;;;;5072606;28;20067;-91
2022/07/28 03:53:00;;;;;;;4.22;1.40;;;10.40;99.90;;;;;;5073087;28;20044;-91
2022/07/28 03:55:26;;;;;;;6.60;1.92;;;10.50;99.90;;;;;;5071700;28;20044;-91
2022/07/28 03:57:52;;;;;;;4.30;1.23;;;10.50;99.90;;;;;;5071664;28;20036;-91
2022/07/28 04:00:18;;;;;;;3.75;1.00;;;10.50;99.90;;;;;;5072458;28;20064;-91
2022/07/28 04:02:45;;;;;;;3.25;0.93;;;10.40;99.90;;;;;;5072517;28;20410;-91
2022/07/28 04:05:15;;;;;;;3.65;1.00;;;10.40;99.90;;;;;;5072345;28;20119;-91
2022/07/28 04:07:41;;;;;;;3.60;0.98;;;10.30;99.90;;;;;;5072444;28;20493;-92
2022/07/28 04:10:09;;;;;;;5.80;1.30;;;10.30;99.90;;;;;;5071067;28;20111;-91
2022/07/28 04:12:56;;;;;;;3.00;1.10;;;10.30;99.90;;;;;;5071578;28;20055;-91
2022/07/28 04:15:22;;;;;;;2.38;0.90;;;10.30;99.90;;;;;;5072568;28;20087;-91
2022/07/28 04:17:49;;;;;;;1.63;0.93;;;10.30;99.90;;;;;;5072349;28;20086;-91
2022/07/28 04:20:17;;;;;;;2.25;0.90;;;10.30;99.90;;;;;;5071961;28;20040;-91
2022/07/28 04:22:44;;;;;;;2.50;0.88;;;10.20;99.90;;;;;;5072196;28;20053;-91
2022/07/28 04:25:13;;;;;;;2.10;0.80;;;10.30;99.90;;;;;;5071901;28;20040;-91
2022/07/28 04:27:39;;;;;;;2.08;0.80;;;10.20;99.90;;;;;;5072177;28;20087;-91
2022/07/28 04:30:09;;;;;;;2.83;0.82;;;10.20;99.90;;;;;;5071990;28;20101;-91
2022/07/28 04:32:37;;;;;;;1.52;0.80;;;10.20;99.90;;;;;;5072273;28;20509;-91
2022/07/28 04:35:03;;;;;;;3.67;0.60;;;10.20;99.90;;;;;;5072134;28;20028;-91
2022/07/28 04:37:28;;;;;;;0.47;0.40;;;10.10;99.90;;;;;;5072004;28;20578;-91
2022/07/28 04:39:55;;;;;;;2.28;0.68;;;10.10;99.90;;;;;;5071925;28;20044;-91
2022/07/28 04:42:20;;;;;;;1.38;0.65;;;10.10;99.90;;;;;;5072109;28;20102;-91
2022/07/28 04:44:46;;;;;;;2.65;0.82;;;10.10;99.90;;;;;;5071924;28;20076;-91
2022/07/28 04:47:12;;;;;;;3.03;1.25;;;10.00;99.90;;;;;;5071900;28;20387;-91
2022/07/28 04:49:38;;;;;;;2.40;1.00;;;10.10;99.90;;;;;;5071620;28;20041;-91
2022/07/28 04:52:07;;;;;;;4.22;1.55;;;10.10;99.90;;;;;;5071757;28;20372;-91
2022/07/28 04:54:33;;;;;;;5.28;1.88;;;10.10;99.90;;;;;;5071981;28;20629;-91
2022/07/28 04:56:59;;;;;;;6.63;1.88;;;10.10;99.90;;;;;;5072031;28;20060;-91
2022/07/28 04:59:24;;;;;;;6.75;2.40;;;10.10;99.90;;;;;;5071659;28;20068;-91
2022/07/28 05:01:50;;;;;;;5.53;2.22;;;10.20;99.90;;;;;;5071898;28;20072;-91
2022/07/28 05:04:15;;;;;;;4.75;1.92;;;10.20;99.90;;;;;;5071522;28;20044;-91
2022/07/28 05:06:41;;;;;;;4.35;1.65;;;10.20;99.90;;;;;;5071343;28;20028;-91
2022/07/28 05:09:07;;;;;;;3.78;1.60;;;10.30;99.90;;;;;;5071664;28;20108;-91
2022/07/28 05:11:32;;;;;;;3.72;1.52;;;10.30;99.90;;;;;;5071751;28;20036;-91
2022/07/28 05:13:58;;;;;;;3.88;1.50;;;10.30;99.90;;;;;;5070277;28;20478;-92
2022/07/28 05:16:23;;;;;;;5.40;1.58;;;10.40;99.90;;;;;;5071501;28;20036;-92
2022/07/28 05:18:49;;;;;;;4.80;1.65;;;10.40;99.90;;;;;;5071374;28;20407;-91
2022/07/28 05:21:14;;;;;;;3.63;1.45;;;10.50;99.90;;;;;;5073926;28;20051;-91
2022/07/28 05:23:40;;;;;;;4.85;1.42;;;10.50;99.90;;;;;;5071732;28;20054;-91
2022/07/28 05:26:06;;;;;;;3.13;1.40;;;10.60;99.90;;;;;;5074191;28;20051;-91
2022/07/28 05:28:32;;;;;;;4.38;1.65;;;10.60;99.90;;;;;;5075562;28;20055;-91
2022/07/28 05:30:57;;;;;;;7.10;1.95;;;10.60;99.90;;;;;;5075411;28;20048;-92
2022/07/28 05:33:23;;;;;;;5.72;1.88;;;10.70;99.90;;;;;;5075765;28;20044;-92
2022/07/28 05:35:56;;;;;;;5.50;2.33;;;10.80;99.90;;;;;;5075510;28;20494;-92
2022/07/28 05:38:22;;;;;;;6.88;2.53;;;10.80;99.90;;;;;;5075505;28;20041;-92
2022/07/28 05:40:48;;;;;;;6.13;2.28;;;10.90;99.90;;;;;;5075538;28;20032;-92
2022/07/28 05:43:14;;;;;;;6.72;3.17;;;11.00;99.90;;;;;;5073832;28;20032;-92
2022/07/28 05:45:40;;;;;;;6.22;2.28;;;11.10;99.90;;;;;;5075215;28;20048;-92
2022/07/28 05:48:06;;;;;;;7.03;2.55;;;11.20;99.90;;;;;;5074709;28;20056;-92
2022/07/28 05:50:32;;;;;;;7.72;3.10;;;11.30;99.90;;;;;;5073425;28;20058;-92
2022/07/28 05:52:58;;;;;;;7.57;3.38;;;11.40;99.90;;;;;;5075198;28;20039;-92
2022/07/28 05:55:23;;;;;;;8.15;2.85;;;11.60;99.90;;;;;;5073739;28;20490;-92
2022/07/28 05:57:49;;;;;;;8.55;3.72;;;11.60;99.90;;;;;;5074878;28;20048;-92
2022/07/28 06:00:21;;;;;;;6.80;3.28;;;11.80;99.90;;;;;;5075224;28;20121;-92
2022/07/28 06:02:48;;;;;;;7.53;3.40;;;11.90;99.90;;;;;;5073896;28;20516;-92
2022/07/28 06:05:16;;;;;;;10.20;3.58;;;11.90;99.90;;;;;;5074625;28;20033;-92
2022/07/28 06:07:42;;;;;;;9.15;4.53;;;12.00;99.90;;;;;;5073596;28;20520;-92
2022/07/28 06:10:08;;;;;;;10.93;3.22;;;12.20;99.90;;;;;;5074887;28;20123;-92
2022/07/28 06:12:45;;;;;;;9.05;3.85;;;12.20;99.90;;;;;;5074798;28;20028;-92
2022/07/28 06:15:13;;;;;;;8.05;3.47;;;12.30;99.90;;;;;;5074730;28;20064;-92
2022/07/28 06:17:39;;;;;;;9.85;3.67;;;12.40;99.90;;;;;;5074490;28;20052;-92
2022/07/28 06:20:05;;;;;;;9.05;4.22;;;12.50;99.90;;;;;;5074686;28;20044;-92
2022/07/28 06:22:43;;;;;;;9.75;3.47;;;12.70;99.90;;;;;;5074484;28;20566;-92
2022/07/28 06:25:24;;;;;;;8.90;3.72;;;12.80;99.90;;;;;;5074293;28;20047;-92
2022/07/28 06:27:51;;;;;;;9.57;2.95;;;12.90;99.90;;;;;;5074549;28;20037;-92
2022/07/28 06:30:18;;;;;;;8.13;2.80;;;13.00;99.90;;;;;;5072722;28;20401;-92
2022/07/28 06:32:44;;;;;;;11.23;3.30;;;13.20;99.90;;;;;;5074191;28;20056;-93
2022/07/28 06:35:13;;;;;;;9.20;3.70;;;13.40;99.90;;;;;;5074191;28;20037;-92
2022/07/28 06:37:39;;;;;;;9.13;3.55;;;13.60;99.90;;;;;;5073763;28;20036;-92
2022/07/28 06:40:06;;;;;;;8.48;2.33;;;13.70;99.90;;;;;;5072786;28;20571;-92
2022/07/28 06:42:31;;;;;;;7.03;2.72;;;13.80;99.90;;;;;;5074167;28;20537;-92
2022/07/28 06:44:57;;;;;;;9.88;2.95;;;14.00;99.90;;;;;;5073986;28;20076;-92
2022/07/28 06:47:22;;;;;;;9.45;2.63;;;14.10;99.90;;;;;;5074519;28;20045;-93
2022/07/28 06:49:48;;;;;;;8.40;2.05;;;14.20;99.90;;;;;;5073861;28;20054;-92
2022/07/28 06:52:14;;;;;;;8.27;2.72;;;14.20;99.90;;;;;;5076348;28;20036;-92
2022/07/28 06:54:39;;;;;;;7.88;2.35;;;14.30;99.90;;;;;;5084098;28;20037;-92
2022/07/28 06:57:05;;;;;;;7.32;2.28;;;14.40;99.90;;;;;;5094204;28;20050;-92
2022/07/28 06:59:31;;;;;;;8.55;2.70;;;14.50;99.90;;;;;;5094002;28;20123;-92
2022/07/28 07:02:00;;;;;;;8.02;2.42;;;14.60;99.90;;;;;;5094099;28;20036;-92
2022/07/28 07:04:27;;;;;;;6.40;1.98;;;14.70;99.90;;;;;;5093967;28;20112;-92
2022/07/28 07:06:52;;;;;;;7.35;2.20;;;14.70;99.90;;;;;;5093635;28;20516;-92
2022/07/28 07:09:18;;;;;;;6.22;1.70;;;14.80;99.90;;;;;;5093649;28;20040;-92
2022/07/28 07:11:44;;;;;;;8.48;1.90;;;14.90;99.90;;;;;;5093862;28;20486;-92
2022/07/28 07:14:09;;;;;;;9.48;1.70;;;15.00;99.90;;;;;;5109558;28;20040;-93
2022/07/28 07:16:35;;;;;;;5.75;1.50;;;15.10;99.90;;;;;;5093699;28;20439;-91
2022/07/28 07:19:00;;;;;;;7.65;1.70;;;15.20;99.90;;;;;;5093225;28;20056;-92
2022/07/28 07:21:26;;;;;;;6.65;1.70;;;15.20;99.90;;;;;;5093391;28;20032;-91
2022/07/28 07:23:51;;;;;;;5.22;1.38;;;15.30;99.90;;;;;;5095673;28;20036;-90
2022/07/28 07:26:17;;;;;;;7.25;1.60;;;15.40;99.90;;;;;;5101050;28;20401;-92
2022/07/28 07:28:43;;;;;;;6.65;1.55;;;15.50;99.90;;;;;;5094792;28;20409;-92
2022/07/28 07:31:08;;;;;;;5.93;1.30;;;15.60;99.90;;;;;;5093483;28;20035;-92
2022/07/28 07:33:36;;;;;;;5.70;1.33;;;15.60;99.90;;;;;;5095033;28;20410;-91
2022/07/28 07:36:02;;;;;;;5.00;1.45;;;15.70;99.90;;;;;;5094197;28;20043;-92
2022/07/28 07:38:27;;;;;;;7.65;1.88;;;15.70;99.90;;;;;;5094595;28;20044;-92
2022/07/28 07:40:53;;;;;;;5.45;1.55;;;15.80;99.90;;;;;;5109443;28;20062;-91
2022/07/28 07:43:18;;;;;;;6.65;1.50;;;15.90;99.90;;;;;;5093609;28;20036;-92
2022/07/28 07:45:44;;;;;;;6.55;1.40;;;15.90;99.90;;;;;;5091510;28;20109;-91
2022/07/28 07:48:10;;;;;;;4.97;1.20;;;16.00;99.90;;;;;;5092917;28;20123;-92
2022/07/28 07:50:37;;;;;;;5.88;1.40;;;16.10;99.90;;;;;;5092978;28;20040;-92
2022/07/28 07:53:03;;;;;;;7.65;1.75;;;16.20;99.90;;;;;;5093032;28;20431;-92
2022/07/28 07:55:29;;;;;;;6.90;1.73;;;16.20;99.90;;;;;;5092757;28;20035;-92
2022/07/28 07:57:55;;;;;;;5.55;1.30;;;16.30;99.90;;;;;;5093039;28;20493;-92
2022/07/28 08:00:20;;;;;;;5.68;1.40;;;16.30;99.90;;;;;;5092731;28;20047;-92
2022/07/28 08:02:46;;;;;;;6.70;1.42;;;16.40;99.90;;;;;;5091671;28;20043;-92
2022/07/28 08:05:12;;;;;;;7.20;1.30;;;16.50;99.90;;;;;;5092737;28;20044;-91
2022/07/28 08:07:38;;;;;;;5.55;1.27;;;16.50;99.90;;;;;;5093059;28;20043;-91
2022/07/28 08:10:05;;;;;;;7.40;1.50;;;16.60;99.90;;;;;;5092599;28;20032;-91
2022/07/28 08:12:30;;;;;;;5.30;1.42;;;16.60;99.90;;;;;;5125908;27;20043;-91
2022/07/28 08:14:56;;;;;;;5.40;1.30;;;16.70;99.90;;;;;;5092738;28;20038;-92
2022/07/28 08:17:22;;;;;;;5.57;1.23;;;16.80;99.90;;;;;;5092734;28;20497;-91
2022/07/28 08:19:48;;;;;;;6.60;1.20;;;16.80;99.90;;;;;;5125279;27;20048;-91
2022/07/28 08:22:14;;;;;;;5.65;1.20;;;16.90;99.90;;;;;;5092919;28;20036;-92
2022/07/28 08:24:40;;;;;;;6.25;1.42;;;16.90;99.90;;;;;;5092437;28;20051;-92
2022/07/28 08:27:06;;;;;;;6.15;1.40;;;17.00;99.90;;;;;;5092298;28;20114;-92
2022/07/28 08:29:32;;;;;;;5.63;1.20;;;17.10;99.90;;;;;;5091308;28;20040;-91
2022/07/28 08:31:58;;;;;;;5.75;1.70;;;17.20;99.90;;;;;;5108013;28;20062;-92
2022/07/28 08:34:24;;;;;;;5.40;1.10;;;17.20;99.90;;;;;;5091947;28;20059;-91
2022/07/28 08:36:50;;;;;;;6.60;1.70;;;17.30;99.90;;;;;;5092655;28;20428;-91
2022/07/28 08:39:15;;;;;;;5.13;1.30;;;17.30;99.90;;;;;;5092025;28;20493;-91
2022/07/28 08:41:55;;;;;;;7.10;1.35;;;17.30;99.90;;;;;;5107825;28;20040;-91
2022/07/28 08:44:29;;;;;;;7.90;1.38;;;17.40;99.90;;;;;;5092120;28;20075;-91
2022/07/28 08:46:56;;;;;;;7.90;1.63;;;17.60;99.90;;;;;;5091967;28;20437;-92
2022/07/28 08:49:21;;;;;;;7.07;1.80;;;17.70;99.90;;;;;;5092161;28;20054;-92
2022/07/28 08:51:48;;;;;;;7.18;1.50;;;17.80;99.90;;;;;;5107935;28;20032;-92
2022/07/28 08:54:26;;;;;;;7.40;1.50;;;17.90;99.90;;;;;;5092053;28;20053;-92
2022/07/28 08:56:53;;;;;;;5.95;1.33;;;18.00;99.90;;;;;;5092244;28;20086;-92
2022/07/28 08:59:19;;;;;;;6.45;1.30;;;18.00;99.90;;;;;;5090925;28;20028;-92
2022/07/28 09:01:46;;;;;;;6.78;1.48;;;18.10;99.90;;;;;;5091900;28;20044;-92
2022/07/28 09:04:12;;;;;;;6.55;1.30;;;18.20;99.90;;;;;;5125084;27;20036;-93
2022/07/28 09:06:40;;;;;;;6.63;1.50;;;18.30;99.90;;;;;;5090556;28;20047;-92
2022/07/28 09:09:09;;;;;;;8.07;1.60;;;18.30;99.90;;;;;;5091753;28;20059;-91
2022/07/28 09:11:36;;;;;;;5.85;1.33;;;18.40;99.90;;;;;;5091951;28;20499;-92
2022/07/28 09:14:03;;;;;;;5.82;1.48;;;18.40;99.90;;;;;;5091621;28;20521;-92
2022/07/28 09:16:29;;;;;;;6.75;1.50;;;18.40;99.90;;;;;;5124650;28;20048;-92
2022/07/28 09:18:54;;;;;;;6.25;1.60;;;18.40;99.90;;;;;;5091875;28;20043;-91
2022/07/28 09:21:20;;;;;;;6.03;1.50;;;18.50;99.90;;;;;;5091740;28;20515;-92
2022/07/28 09:23:47;;;;;;;5.93;1.48;;;18.50;99.90;;;;;;5090495;28;20440;-92
2022/07/28 09:26:14;;;;;;;7.57;1.50;;;18.70;99.90;;;;;;5091742;28;20469;-92
2022/07/28 09:29:07;;;;;;;8.05;1.50;;;18.80;99.90;;;;;;5091319;28;20048;-92
2022/07/28 09:31:32;;;;;;;5.60;1.30;;;18.90;99.90;;;;;;5088246;28;20119;-92
2022/07/28 09:34:03;;;;;;;5.75;1.20;;;18.90;99.90;;;;;;5091796;28;20461;-92
2022/07/28 09:36:40;;;;;;;7.20;1.40;;;18.90;98.90;;;;;;5091196;28;20055;-92
2022/07/28 09:39:06;;;;;;;7.47;1.42;;;18.90;98.90;;;;;;5114538;28;20043;-92
2022/07/28 09:41:57;;;;;;;4.03;1.20;;;18.90;99.10;;;;;;5089758;28;20028;-92
2022/07/28 09:44:24;;;;;;;5.93;1.48;;;18.90;99.80;;;;;;5090731;28;20028;-91
2022/07/28 09:46:49;;;;;;;4.50;1.30;;;18.90;99.50;;;;;;5091515;28;20252;-90
2022/07/28 09:49:15;;;;;;;4.53;1.00;;;19.00;99.90;;;;;;5091379;28;20060;-91
2022/07/28 09:51:41;;;;;;;5.63;1.10;;;19.10;99.90;;;;;;5091634;28;20086;-91
2022/07/28 09:54:12;;;;;;;2.33;0.93;;;19.20;99.70;;;;;;5107096;28;20420;-91
2022/07/28 09:56:43;;;;;;;6.47;1.33;;;19.40;99.80;;;;;;5090193;28;20058;-91
2022/07/28 09:59:10;;;;;;;4.28;1.52;;;19.50;97.10;;;;;;5091393;28;20070;-92
2022/07/28 10:01:57;;;;;;;4.03;1.15;;;19.50;95.30;;;;;;5089935;28;20048;-92
2022/07/28 10:04:30;;;;;;;4.68;1.10;;;19.50;95.10;;;;;;5091464;28;20582;-92
2022/07/28 10:07:13;;;;;;;3.70;1.00;;;19.60;95.30;;;;;;5107244;28;20452;-92
2022/07/28 10:09:39;;;;;;;5.13;1.13;;;19.60;95.40;;;;;;5090678;28;20039;-92
2022/07/28 10:12:25;;;;;;;5.80;1.15;;;19.70;96.30;;;;;;5093472;28;20044;-92
2022/07/28 10:14:53;;;;;;;8.27;1.30;;;19.80;94.90;;;;;;5094808;28;20619;-92
2022/07/28 10:17:36;;;;;;;3.60;1.13;;;19.90;93.40;;;;;;5094790;28;20036;-91
2022/07/28 10:20:05;;;;;;;5.13;1.13;;;20.00;89.50;;;;;;5094714;28;20508;-92
2022/07/28 10:22:36;;;;;;;6.90;1.30;;;20.10;86.80;;;;;;5094947;28;20039;-92
2022/07/28 10:25:13;;;;;;;3.75;0.90;;;20.20;87.70;;;;;;5095076;28;20040;-92
2022/07/28 10:27:40;;;;;;;4.47;1.10;;;20.30;81.40;;;;;;5094703;28;20040;-93
2022/07/28 10:30:07;;;;;;;3.83;1.17;;;20.30;74.80;;;;;;5088455;28;20067;-92
2022/07/28 10:32:40;;;;;;;4.63;1.33;;;20.40;78.20;;;;;;5110467;28;20085;-92
2022/07/28 10:35:12;;;;;;;3.47;1.10;;;20.50;79.70;;;;;;5094589;28;20047;-92
2022/07/28 10:37:57;;;;;;;5.25;1.17;;;20.60;77.00;;;;;;5093474;28;20127;-92
2022/07/28 10:40:31;;;;;;;5.38;1.25;;;20.60;77.30;;;;;;5094498;28;20051;-92
2022/07/28 10:42:58;;;;;;;4.18;1.13;;;20.80;77.60;;;;;;5094557;28;20058;-92
2022/07/28 10:45:26;;;;;;;4.50;1.20;;;20.90;77.10;;;;;;5094291;28;20127;-93
2022/07/28 10:47:53;;;;;;;4.45;1.35;;;20.80;77.60;;;;;;5094772;28;20068;-93
2022/07/28 10:50:20;;;;;;;4.45;1.10;;;20.90;75.80;;;;;;5094081;28;20044;-93
2022/07/28 10:52:47;;;;;;;3.53;1.13;;;20.80;75.50;;;;;;5093980;28;20545;-93
2022/07/28 10:55:32;;;;;;;3.78;1.08;;;20.80;77.90;;;;;;5094246;28;20093;-93
2022/07/28 10:58:15;;;;;;;3.97;1.15;;;20.80;79.00;;;;;;5094107;28;20044;-93
2022/07/28 11:00:52;;;;;;;4.00;1.35;;;20.90;82.30;;;;;;5093952;28;20036;-93
2022/07/28 11:03:43;;;;;;;5.80;1.20;;;21.00;82.10;;;;;;5093947;28;20411;-92
2022/07/28 11:06:32;;;;;;;6.07;1.13;;;21.10;81.30;;;;;;5094189;28;20046;-93
2022/07/28 11:09:18;;;;;;;8.30;1.70;;;21.10;77.60;;;;;;5092213;28;20066;-93
2022/07/28 11:11:56;;;;;;;4.35;1.33;;;21.10;78.90;;;;;;5086168;28;20421;-92
2022/07/28 11:14:22;;;;;;;6.30;1.30;;;21.10;77.40;;;;;;5093984;28;20123;-93
2022/07/28 11:17:03;;;;;;;3.78;1.17;;;21.10;78.40;;;;;;5093597;28;20182;-93
2022/07/28 11:19:48;;;;;;;4.67;1.10;;;21.20;80.60;;;;;;5093928;28;20047;-93
2022/07/28 11:22:13;;;;;;;5.80;1.27;;;21.30;73.70;;;;;;5093162;28;20043;-92
2022/07/28 11:24:58;;;;;;;5.05;1.02;;;21.30;75.80;;;;;;5093752;28;20162;-92
2022/07/28 11:27:39;;;;;;;3.90;1.00;;;21.40;78.50;;;;;;5109048;28;20076;-92
2022/07/28 11:30:05;;;;;;;6.95;1.20;;;21.50;78.80;;;;;;5109390;28;20431;-90
2022/07/28 11:32:49;;;;;;;5.97;1.20;;;21.50;75.30;;;;;;5093480;28;20393;-92
2022/07/28 11:35:21;;;;;;;3.30;1.10;;;21.60;72.60;;;;;;5092185;28;20040;-92
2022/07/28 11:38:13;;;;;;;5.53;1.20;;;21.60;70.50;;;;;;5093435;28;20046;-92
2022/07/28 11:40:47;;;;;;;3.37;1.00;;;21.80;73.90;;;;;;5091319;28;20059;-92
2022/07/28 11:43:21;;;;;;;3.53;1.00;;;21.90;72.50;;;;;;5093500;28;20115;-92
2022/07/28 11:46:10;;;;;;;4.95;1.05;;;22.00;71.80;;;;;;5093177;28;20118;-92
2022/07/28 11:48:37;;;;;;;4.85;1.23;;;22.20;74.60;;;;;;5092964;28;20493;-92
2022/07/28 11:51:03;;;;;;;7.07;1.20;;;22.20;69.00;;;;;;5092870;28;20047;-92
2022/07/28 11:53:49;;;;;;;4.45;1.00;;;22.30;69.70;;;;;;5093252;28;20032;-93
2022/07/28 11:56:21;;;;;;;4.40;1.20;;;22.50;74.00;;;;;;5093164;28;20032;-93
2022/07/28 11:58:54;;;;;;;8.68;1.30;;;22.60;71.50;;;;;;5109067;28;20074;-93
2022/07/28 12:01:20;;;;;;;4.85;1.02;;;22.70;70.60;;;;;;5091671;28;20050;-93
2022/07/28 12:03:48;;;;;;;4.35;1.17;;;22.80;66.00;;;;;;5093168;28;20115;-93
2022/07/28 12:06:14;;;;;;;4.88;1.15;;;22.90;63.90;;;;;;5092876;28;20044;-92
2022/07/28 12:08:58;;;;;;;4.57;1.10;;;23.00;61.90;;;;;;5092679;28;20119;-92
2022/07/28 12:11:25;;;;;;;5.35;1.08;;;23.10;62.10;;;;;;5092452;28;20379;-92
2022/07/28 12:14:21;;;;;;;6.28;1.00;;;23.20;61.20;;;;;;5092680;28;20028;-93
2022/07/28 12:16:49;;;;;;;5.93;1.33;;;23.30;64.00;;;;;;5083857;28;20583;-93
2022/07/28 12:19:17;;;;;;;5.18;1.10;;;23.30;63.30;;;;;;5092507;28;20036;-92
2022/07/28 12:21:53;;;;;;;4.35;1.10;;;23.20;61.50;;;;;;5092702;28;20063;-92
2022/07/28 12:24:27;;;;;;;4.70;1.10;;;23.10;61.30;;;;;;5092637;28;20032;-92
2022/07/28 12:26:54;;;;;;;5.10;1.20;;;23.00;62.90;;;;;;5092566;28;20040;-93
2022/07/28 12:29:20;;;;;;;5.78;1.10;;;23.10;62.00;;;;;;5108070;28;20540;-93
2022/07/28 12:32:01;;;;;;;5.50;1.13;;;23.20;61.30;;;;;;5091350;28;20454;-93
2022/07/28 12:34:28;;;;;;;4.93;1.13;;;23.30;61.40;;;;;;5091336;28;20112;-93
2022/07/28 12:36:55;;;;;;;5.03;1.05;;;23.40;61.30;;;;;;5092665;28;20177;-92
2022/07/28 12:39:23;;;;;;;4.88;1.33;;;23.50;61.50;;;;;;5092242;28;20036;-93
2022/07/28 12:42:08;;;;;;;3.03;1.17;;;23.70;61.60;;;;;;5092537;28;20040;-92
2022/07/28 12:44:46;;;;;;;4.70;1.13;;;23.90;62.40;;;;;;5092062;28;20036;-92
2022/07/28 12:47:13;;;;;;;5.00;1.30;;;24.10;65.40;;;;;;5092226;28;20306;-92
2022/07/28 12:49:41;;;;;;;3.17;1.00;;;24.20;62.60;;;;;;5091870;28;20098;-93
2022/07/28 12:52:18;;;;;;;3.90;1.25;;;24.20;61.30;;;;;;5092468;28;20046;-92
2022/07/28 12:54:44;;;;;;;4.32;1.10;;;24.30;62.70;;;;;;5092119;28;20035;-92
2022/07/28 12:57:10;;;;;;;3.42;1.10;;;24.40;60.70;;;;;;5084355;28;20043;-92